Weather at Howell Airport

Public forecast

Using degrees Fahrenheit for public forecast. Weather courtesy of forecast.io.

Closest aviation weather report (METAR) to Howell Airport

Closest report is Tacoma Narrows Airport, 9.6 nm (17.7 km) NE.

2024/07/17 13:53 (retrieved 10 minutes ago)

KTIW 171353Z AUTO 34003KT 10SM CLR 17/13 A2996 RMK AO2 SLP141 T01720133

Closest aviation forecast (TAF) to Howell Airport

Closest forecast is Gray Army Air Field, 9.8 nm (18.2 km) SE.

2024/07/17 13:09 (retrieved 54 minutes ago)

TAF KGRF 171300Z 1713/1819 24006KT 9999 SCT200 QNH2997INS BECMG 1720/1721 24010G15KT 9999 VCSH FEW200 QNH3000INS BECMG 1802/1803 25008KT 9999 NSW SCT025 QNH3003INS BECMG 1810/1811 21005KT 9999 SKC QNH3007INS BECMG 1814/1815 24006KT 9999 SCT016 BKN022 QNH3011INS TX26/1800Z TN13/1812Z